createdAt,value
2022-08-26T00:01:32.683Z,98151.94
2022-08-26T00:04:25.492Z,98146.88
2022-08-26T00:07:14.653Z,98159.28
2022-08-26T00:10:03.011Z,98153.47
2022-08-26T00:12:52.945Z,98149.38
2022-08-26T00:15:41.888Z,98151.06
2022-08-26T00:18:30.977Z,98140.41
2022-08-26T00:21:27.209Z,98141.50
2022-08-26T00:24:15.822Z,98147.34
2022-08-26T00:27:04.266Z,98146.59
2022-08-26T00:29:56.339Z,98136.28
2022-08-26T00:32:46.385Z,98146.22
2022-08-26T00:35:36.601Z,98154.47
2022-08-26T00:38:25.261Z,98149.59
2022-08-26T00:41:13.804Z,98148.50
2022-08-26T00:44:02.290Z,98155.03
2022-08-26T00:47:01.531Z,98145.28
2022-08-26T00:49:51.575Z,98147.34
2022-08-26T00:52:41.567Z,98149.06
2022-08-26T00:55:37.907Z,98148.50
2022-08-26T00:58:29.592Z,98152.81
2022-08-26T01:01:18.838Z,98159.53
2022-08-26T01:04:15.248Z,98149.22
2022-08-26T01:07:04.787Z,98147.13
2022-08-26T01:09:54.298Z,98162.66
2022-08-26T01:12:47.460Z,98159.44
2022-08-26T01:15:42.734Z,98152.00
2022-08-26T01:18:31.623Z,98160.63
2022-08-26T01:21:32.232Z,98152.53
2022-08-26T01:24:21.946Z,98155.91
2022-08-26T01:27:13.804Z,98148.63
2022-08-26T01:30:03.410Z,98145.59
2022-08-26T01:32:53.125Z,98154.97
2022-08-26T01:35:43.110Z,98147.06
2022-08-26T01:38:31.604Z,98152.66
2022-08-26T01:41:27.178Z,98153.06
2022-08-26T01:44:23.618Z,98153.06
2022-08-26T01:47:14.325Z,98154.91
2022-08-26T01:50:10.530Z,98150.03
2022-08-26T01:53:04.295Z,98145.94
2022-08-26T01:55:57.151Z,98150.56
2022-08-26T01:58:51.602Z,98150.38
2022-08-26T02:01:40.149Z,98145.50
2022-08-26T02:04:34.999Z,98142.69
2022-08-26T02:07:26.767Z,98145.09
2022-08-26T02:10:16.190Z,98148.69
2022-08-26T02:13:05.582Z,98144.56
2022-08-26T02:15:56.343Z,98148.81
2022-08-26T02:18:46.867Z,98146.94
2022-08-26T02:21:36.029Z,98143.53
2022-08-26T02:24:27.823Z,98145.94
2022-08-26T02:27:16.786Z,98146.34
2022-08-26T02:30:11.349Z,98148.94
2022-08-26T02:33:03.806Z,98136.56
2022-08-26T02:35:52.133Z,98145.59
2022-08-26T02:38:40.514Z,98137.50
2022-08-26T02:41:31.544Z,98135.81
2022-08-26T02:44:21.065Z,98136.53
2022-08-26T02:47:09.564Z,98132.97
2022-08-26T02:49:59.401Z,98135.91
2022-08-26T02:52:48.545Z,98122.03
2022-08-26T02:55:37.069Z,98134.06
2022-08-26T02:58:27.572Z,98133.47
2022-08-26T03:01:24.442Z,98130.25
2022-08-26T03:04:13.954Z,98121.84
2022-08-26T03:07:05.498Z,98132.88
2022-08-26T03:09:54.907Z,98129.13
2022-08-26T03:12:47.538Z,98132.25
2022-08-26T03:15:36.614Z,98133.25
2022-08-26T03:18:25.717Z,98133.56
2022-08-26T03:21:17.121Z,98118.44
2022-08-26T03:24:11.247Z,98129.47
2022-08-26T03:27:01.962Z,98129.22
2022-08-26T03:30:13.074Z,98129.03
2022-08-26T03:33:04.292Z,98131.63
2022-08-26T03:35:53.324Z,98127.19
2022-08-26T03:38:41.896Z,98125.69
2022-08-26T03:41:35.971Z,98126.38
2022-08-26T03:44:24.361Z,98132.19
2022-08-26T03:47:13.545Z,98131.09
2022-08-26T03:50:02.441Z,98119.63
2022-08-26T03:52:51.870Z,98126.69
2022-08-26T03:55:40.533Z,98129.31
2022-08-26T03:58:32.254Z,98127.28
2022-08-26T04:01:20.855Z,98126.13
2022-08-26T04:04:09.725Z,98131.53
2022-08-26T04:07:03.903Z,98133.97
2022-08-26T04:09:55.249Z,98130.97
2022-08-26T04:12:43.870Z,98130.03
2022-08-26T04:15:34.015Z,98129.81
2022-08-26T04:18:23.040Z,98134.34
2022-08-26T04:21:12.730Z,98130.91
2022-08-26T04:24:04.138Z,98140.13
2022-08-26T04:26:52.836Z,98134.88
2022-08-26T04:29:41.762Z,98136.97
2022-08-26T04:32:31.471Z,98136.13
2022-08-26T04:35:25.487Z,98142.13
2022-08-26T04:38:16.354Z,98135.28
2022-08-26T04:41:05.598Z,98141.31
2022-08-26T04:44:06.464Z,98129.13
2022-08-26T04:46:55.569Z,98125.81
2022-08-26T04:49:45.745Z,98130.28
2022-08-26T04:52:36.136Z,98127.75
2022-08-26T04:55:38.486Z,98126.16
2022-08-26T04:58:28.428Z,98127.66
2022-08-26T05:01:17.126Z,98128.13
2022-08-26T05:04:06.275Z,98126.59
2022-08-26T05:07:02.292Z,98123.63
2022-08-26T05:09:51.385Z,98128.66
2022-08-26T05:12:39.713Z,98134.88
2022-08-26T05:15:28.986Z,98124.72
2022-08-26T05:18:20.007Z,98129.88
2022-08-26T05:21:09.198Z,98133.47
2022-08-26T05:23:59.030Z,98134.47
2022-08-26T05:26:48.251Z,98132.44
2022-08-26T05:29:36.746Z,98146.09
2022-08-26T05:32:25.098Z,98135.06
2022-08-26T05:35:13.638Z,98137.00
2022-08-26T05:38:12.258Z,98136.78
2022-08-26T05:41:02.420Z,98137.00
2022-08-26T05:43:52.743Z,98137.00
2022-08-26T05:46:44.892Z,98139.63
2022-08-26T05:49:33.385Z,98133.19
2022-08-26T05:52:25.871Z,98134.69
2022-08-26T05:55:14.593Z,98130.97
2022-08-26T05:58:05.927Z,98136.03
2022-08-26T06:00:59.411Z,98132.13
2022-08-26T06:03:51.810Z,98130.59
2022-08-26T06:06:41.907Z,98124.66
2022-08-26T06:09:31.678Z,98132.19
2022-08-26T06:12:21.425Z,98136.09
2022-08-26T06:15:12.714Z,98140.03
2022-08-26T06:18:04.006Z,98130.28
2022-08-26T06:20:58.059Z,98137.06
2022-08-26T06:24:06.957Z,98136.72
2022-08-26T06:26:57.537Z,98132.19
2022-08-26T06:29:45.855Z,98134.06
2022-08-26T06:32:36.155Z,98133.69
2022-08-26T06:35:24.795Z,98134.63
2022-08-26T06:38:14.013Z,98132.94
2022-08-26T06:41:02.539Z,98134.97
2022-08-26T06:43:51.614Z,98133.66
2022-08-26T06:46:40.697Z,98132.53
2022-08-26T06:49:30.455Z,98138.69
2022-08-26T06:52:24.432Z,98134.03
2022-08-26T06:55:13.411Z,98144.13
2022-08-26T06:58:01.795Z,98133.06
2022-08-26T07:00:52.934Z,98136.03
2022-08-26T07:03:41.305Z,98133.94
2022-08-26T07:06:32.727Z,98129.94
2022-08-26T07:09:23.215Z,98135.91
2022-08-26T07:12:11.658Z,98132.88
2022-08-26T07:15:00.010Z,98134.16
2022-08-26T07:17:48.449Z,98128.16
2022-08-26T07:20:42.258Z,98132.56
2022-08-26T07:23:32.420Z,98125.53
2022-08-26T07:26:23.766Z,98126.69
2022-08-26T07:29:14.927Z,98123.50
2022-08-26T07:32:03.891Z,98124.84
2022-08-26T07:34:52.871Z,98123.06
2022-08-26T07:37:41.305Z,98123.31
2022-08-26T07:40:31.682Z,98122.84
2022-08-26T07:43:20.235Z,98123.09
2022-08-26T07:46:11.299Z,98116.78
2022-08-26T07:49:03.196Z,98114.16
2022-08-26T07:51:52.419Z,98117.72
2022-08-26T07:54:40.910Z,98118.81
2022-08-26T07:57:31.664Z,98117.75
2022-08-26T08:00:25.501Z,98124.47
2022-08-26T08:03:15.181Z,98123.06
2022-08-26T08:06:03.673Z,98118.91
2022-08-26T08:08:52.781Z,98122.38
2022-08-26T08:11:41.533Z,98121.28
2022-08-26T08:14:34.666Z,98115.75
2022-08-26T08:17:23.215Z,98119.47
2022-08-26T08:20:12.684Z,98105.78
2022-08-26T08:23:02.473Z,98113.91
2022-08-26T08:25:50.922Z,98105.34
2022-08-26T08:28:39.964Z,98103.91
2022-08-26T08:31:55.767Z,98100.69
2022-08-26T08:37:35.704Z,98106.56
2022-08-26T08:40:29.215Z,98100.09
2022-08-26T08:43:32.162Z,98102.91
2022-08-26T08:46:26.233Z,98094.13
2022-08-26T08:49:16.754Z,98099.38
2022-08-26T08:52:13.534Z,98096.84
2022-08-26T08:55:02.419Z,98094.47
2022-08-26T08:58:03.392Z,98090.03
2022-08-26T09:01:03.139Z,98088.34
2022-08-26T09:04:02.515Z,98092.50
2022-08-26T09:09:48.648Z,98088.03
2022-08-26T09:12:37.224Z,98080.13
2022-08-26T09:15:30.583Z,98082.94
2022-08-26T09:18:34.726Z,98089.44
2022-08-26T09:21:25.134Z,98077.03
2022-08-26T09:24:15.131Z,98073.91
2022-08-26T09:27:07.101Z,98077.91
2022-08-26T09:30:00.790Z,98070.38
2022-08-26T09:33:00.280Z,98071.25
2022-08-26T09:35:52.406Z,98065.09
2022-08-26T09:38:41.546Z,98073.41
2022-08-26T09:41:34.136Z,98066.41
2022-08-26T09:44:22.619Z,98069.97
2022-08-26T09:47:11.611Z,98063.00
2022-08-26T09:50:09.697Z,98061.53
2022-08-26T09:53:12.950Z,98054.28
2022-08-26T09:56:18.463Z,98051.53
2022-08-26T09:59:11.215Z,98058.25
2022-08-26T10:02:18.487Z,98051.09
2022-08-26T10:05:11.332Z,98048.44
2022-08-26T10:08:00.362Z,98051.63
2022-08-26T10:10:53.177Z,98049.31
2022-08-26T10:13:46.289Z,98047.69
2022-08-26T10:16:49.893Z,98048.56
2022-08-26T10:19:55.732Z,98049.69
2022-08-26T10:22:51.373Z,98048.72
2022-08-26T10:25:46.653Z,98045.47
2022-08-26T10:28:41.606Z,98041.91
2022-08-26T10:31:40.944Z,98029.16
2022-08-26T10:34:29.978Z,98040.28
2022-08-26T10:37:21.388Z,98035.59
2022-08-26T10:40:15.554Z,98029.91
2022-08-26T10:43:11.237Z,98025.81
2022-08-26T10:46:06.967Z,98034.78
2022-08-26T10:48:59.982Z,98028.97
2022-08-26T10:51:58.907Z,98025.53
2022-08-26T10:54:53.937Z,98027.28
2022-08-26T10:57:51.779Z,98022.06
2022-08-26T11:01:02.361Z,98020.31
2022-08-26T11:04:08.741Z,98020.16
2022-08-26T11:07:36.394Z,98014.22
2022-08-26T11:11:04.478Z,98001.53
2022-08-26T11:14:00.429Z,98010.16
2022-08-26T11:16:52.002Z,98001.81
2022-08-26T11:20:13.766Z,97997.78
2022-08-26T11:23:38.475Z,97999.53
2022-08-26T11:26:56.192Z,97994.41
2022-08-26T11:29:59.387Z,97994.34
2022-08-26T11:32:50.600Z,97994.22
2022-08-26T11:35:52.402Z,97981.16
2022-08-26T11:38:43.733Z,97990.28
2022-08-26T11:41:34.354Z,97973.53
2022-08-26T11:44:25.790Z,97974.50
2022-08-26T11:47:17.598Z,97979.25
2022-08-26T11:50:10.671Z,97964.88
2022-08-26T11:53:06.374Z,97966.78
2022-08-26T11:55:58.225Z,97958.13
2022-08-26T11:58:48.210Z,97964.06
2022-08-26T12:01:38.352Z,97958.41
2022-08-26T12:04:31.519Z,97962.94
2022-08-26T12:07:24.934Z,97963.16
2022-08-26T12:10:29.538Z,97948.41
2022-08-26T12:13:23.229Z,97949.41
2022-08-26T12:16:12.289Z,97947.34
2022-08-26T12:19:01.099Z,97945.97
2022-08-26T12:21:50.828Z,97944.91
2022-08-26T12:24:45.001Z,97934.94
2022-08-26T12:27:39.876Z,97939.91
2022-08-26T12:30:29.952Z,97940.16
2022-08-26T12:33:22.994Z,97929.28
2022-08-26T12:36:23.740Z,97927.44
2022-08-26T12:39:14.573Z,97931.63
2022-08-26T12:42:05.005Z,97926.59
2022-08-26T12:45:03.859Z,97929.91
2022-08-26T12:47:57.454Z,97924.59
2022-08-26T12:50:48.723Z,97920.44
2022-08-26T12:53:44.318Z,97913.84
2022-08-26T12:56:38.533Z,97916.72
2022-08-26T12:59:27.472Z,97913.53
2022-08-26T13:02:38.499Z,97914.78
2022-08-26T13:05:33.203Z,97903.53
2022-08-26T13:08:27.798Z,97912.66
2022-08-26T13:11:20.721Z,97911.19
2022-08-26T13:14:10.944Z,97908.38
2022-08-26T13:16:59.487Z,97903.47
2022-08-26T13:19:49.343Z,97902.94
2022-08-26T13:22:38.432Z,97900.00
2022-08-26T13:25:27.202Z,97883.81
2022-08-26T13:28:15.579Z,97889.38
2022-08-26T13:31:05.355Z,97887.19
2022-08-26T13:33:54.032Z,97885.69
2022-08-26T13:36:45.091Z,97887.63
2022-08-26T13:39:34.240Z,97895.53
2022-08-26T13:42:23.060Z,97883.84
2022-08-26T13:45:12.538Z,97882.59
2022-08-26T13:48:01.151Z,97885.38
2022-08-26T13:50:49.905Z,97878.84
2022-08-26T13:53:39.726Z,97880.00
2022-08-26T13:56:30.977Z,97883.00
2022-08-26T13:59:19.549Z,97874.16
2022-08-26T14:02:08.661Z,97876.91
2022-08-26T14:04:58.534Z,97878.94
2022-08-26T14:07:47.084Z,97870.97
2022-08-26T14:10:37.212Z,97870.03
2022-08-26T14:13:25.816Z,97869.31
2022-08-26T14:16:20.835Z,97861.66
2022-08-26T14:19:10.284Z,97857.41
2022-08-26T14:22:01.145Z,97860.63
2022-08-26T14:24:50.383Z,97863.09
2022-08-26T14:27:40.889Z,97864.91
2022-08-26T14:30:30.004Z,97856.44
2022-08-26T14:33:21.177Z,97854.16
2022-08-26T14:36:27.376Z,97851.59
2022-08-26T14:39:15.941Z,97861.31
2022-08-26T14:42:04.443Z,97851.94
2022-08-26T14:44:57.711Z,97856.13
2022-08-26T14:47:47.720Z,97858.66
2022-08-26T14:50:36.435Z,97863.50
2022-08-26T14:53:42.461Z,97855.16
2022-08-26T14:56:32.433Z,97852.72
2022-08-26T14:59:23.954Z,97849.63
2022-08-26T15:02:32.615Z,97848.19
2022-08-26T15:05:22.375Z,97852.72
2022-08-26T15:08:10.991Z,97848.22
2022-08-26T15:10:59.650Z,97857.94
2022-08-26T15:13:48.620Z,97862.19
2022-08-26T15:16:37.435Z,97859.88
2022-08-26T15:19:28.444Z,97859.03
2022-08-26T15:22:16.951Z,97847.91
2022-08-26T15:25:06.373Z,97857.66
2022-08-26T15:27:54.981Z,97851.72
2022-08-26T15:30:44.278Z,97856.16
2022-08-26T15:33:33.249Z,97850.13
2022-08-26T15:36:23.063Z,97851.31
2022-08-26T15:39:12.429Z,97848.09
2022-08-26T15:42:01.122Z,97847.38
2022-08-26T15:44:50.043Z,97847.66
2022-08-26T15:48:00.814Z,97845.47
2022-08-26T15:50:52.441Z,97841.69
2022-08-26T15:53:42.323Z,97844.16
2022-08-26T15:56:32.687Z,97841.94
2022-08-26T15:59:25.999Z,97837.50
2022-08-26T16:02:14.714Z,97833.50
2022-08-26T16:05:03.484Z,97831.66
2022-08-26T16:07:51.917Z,97831.78
2022-08-26T16:10:49.216Z,97835.13
2022-08-26T16:13:39.994Z,97831.50
2022-08-26T16:16:28.948Z,97834.53
2022-08-26T16:19:17.580Z,97837.88
2022-08-26T16:22:09.267Z,97833.97
2022-08-26T16:24:58.641Z,97836.88
2022-08-26T16:27:48.435Z,97829.41
2022-08-26T16:30:37.108Z,97829.75
2022-08-26T16:33:30.062Z,97824.19
2022-08-26T16:36:18.592Z,97823.09
2022-08-26T16:39:08.781Z,97823.19
2022-08-26T16:41:57.325Z,97817.19
2022-08-26T16:44:47.125Z,97814.19
2022-08-26T16:47:35.728Z,97813.03
2022-08-26T16:50:25.409Z,97820.00
2022-08-26T16:56:03.547Z,97816.13
2022-08-26T16:58:54.211Z,97813.53
2022-08-26T17:01:44.225Z,97808.44
2022-08-26T17:04:33.131Z,97813.69
2022-08-26T17:07:21.557Z,97807.09
2022-08-26T17:10:11.330Z,97810.63
2022-08-26T17:12:59.845Z,97815.72
2022-08-26T17:15:54.210Z,97811.78
2022-08-26T17:18:48.594Z,97813.81
2022-08-26T17:21:37.932Z,97804.75
2022-08-26T17:24:26.333Z,97809.59
2022-08-26T17:27:14.971Z,97808.03
2022-08-26T17:30:03.475Z,97804.19
2022-08-26T17:32:51.906Z,97810.84
2022-08-26T17:35:41.899Z,97796.28
2022-08-26T17:38:30.453Z,97806.38
2022-08-26T17:41:20.020Z,97800.88
2022-08-26T17:44:08.751Z,97807.13
2022-08-26T17:46:57.541Z,97807.78
2022-08-26T17:49:46.108Z,97808.59
2022-08-26T17:52:35.972Z,97800.78
2022-08-26T17:55:24.469Z,97803.88
2022-08-26T17:58:14.655Z,97798.72
2022-08-26T18:01:04.791Z,97800.19
2022-08-26T18:04:00.072Z,97807.69
2022-08-26T18:06:49.567Z,97810.09
2022-08-26T18:09:39.467Z,97807.47
2022-08-26T18:12:27.883Z,97808.69
2022-08-26T18:15:18.594Z,97808.22
2022-08-26T18:18:07.274Z,97815.19
2022-08-26T18:21:01.847Z,97815.44
2022-08-26T18:23:51.672Z,97809.50
2022-08-26T18:26:48.088Z,97809.59
2022-08-26T18:29:36.589Z,97817.47
2022-08-26T18:32:33.958Z,97820.50
2022-08-26T18:35:22.443Z,97815.63
2022-08-26T18:38:13.877Z,97808.53
2022-08-26T18:41:05.511Z,97808.38
2022-08-26T18:43:55.814Z,97811.00
2022-08-26T18:46:45.279Z,97815.88
2022-08-26T18:49:33.670Z,97814.03
2022-08-26T18:52:22.752Z,97813.56
2022-08-26T18:55:12.739Z,97816.31
2022-08-26T18:58:01.241Z,97812.53
2022-08-26T19:00:51.364Z,97813.78
2022-08-26T19:03:39.911Z,97811.88
2022-08-26T19:06:32.925Z,97811.00
2022-08-26T19:09:22.525Z,97809.59
2022-08-26T19:12:11.596Z,97806.91
2022-08-26T19:15:01.707Z,97804.44
2022-08-26T19:17:51.576Z,97804.28
2022-08-26T19:20:44.726Z,97808.19
2022-08-26T19:23:35.367Z,97804.94
2022-08-26T19:26:25.129Z,97802.09
2022-08-26T19:29:15.326Z,97808.53
2022-08-26T19:32:04.951Z,97804.34
2022-08-26T19:34:55.054Z,97808.22
2022-08-26T19:37:43.494Z,97806.72
2022-08-26T19:40:34.954Z,97804.09
2022-08-26T19:43:23.442Z,97807.06
2022-08-26T19:46:13.592Z,97802.91
2022-08-26T19:49:02.197Z,97798.00
2022-08-26T19:51:54.521Z,97795.47
2022-08-26T19:54:43.048Z,97809.00
2022-08-26T19:57:31.744Z,97809.72
2022-08-26T20:00:25.728Z,97811.19
2022-08-26T20:03:16.172Z,97816.53
2022-08-26T20:06:06.517Z,97812.22
2022-08-26T20:08:56.516Z,97810.28
2022-08-26T20:11:44.999Z,97816.25
2022-08-26T20:14:34.010Z,97812.78
2022-08-26T20:17:22.666Z,97812.63
2022-08-26T20:20:33.363Z,97812.78
2022-08-26T20:23:22.314Z,97819.75
2022-08-26T20:26:12.160Z,97822.13
2022-08-26T20:29:01.422Z,97824.94
2022-08-26T20:31:50.756Z,97824.03
2022-08-26T20:34:40.146Z,97822.84
2022-08-26T20:37:29.462Z,97829.97
2022-08-26T20:40:18.058Z,97835.88
2022-08-26T20:43:07.920Z,97840.50
2022-08-26T20:45:56.398Z,97842.13
2022-08-26T20:48:44.966Z,97836.28
2022-08-26T20:51:34.755Z,97846.78
2022-08-26T20:54:28.185Z,97842.31
2022-08-26T20:57:17.045Z,97851.53
2022-08-26T21:00:08.162Z,97835.91
2022-08-26T21:02:57.477Z,97847.06
2022-08-26T21:05:45.946Z,97846.19
2022-08-26T21:08:34.450Z,97855.22
2022-08-26T21:11:23.202Z,97842.13
2022-08-26T21:14:16.620Z,97851.63
2022-08-26T21:17:07.144Z,97850.56
2022-08-26T21:19:55.735Z,97847.72
2022-08-26T21:22:44.498Z,97847.72
2022-08-26T21:25:33.066Z,97843.88
2022-08-26T21:28:21.578Z,97847.69
2022-08-26T21:31:13.140Z,97845.59
2022-08-26T21:34:03.059Z,97846.78
2022-08-26T21:36:51.666Z,97850.44
2022-08-26T21:39:40.070Z,97845.94
2022-08-26T21:42:33.110Z,97843.66
2022-08-26T21:45:21.749Z,97849.41
2022-08-26T21:48:10.419Z,97847.50
2022-08-26T21:51:00.332Z,97849.59
2022-08-26T21:53:48.870Z,97848.91
2022-08-26T21:56:39.748Z,97850.91
2022-08-26T21:59:28.507Z,97854.56
2022-08-26T22:02:17.112Z,97853.41
2022-08-26T22:05:06.526Z,97844.53
2022-08-26T22:07:56.594Z,97856.56
2022-08-26T22:10:45.172Z,97846.47
2022-08-26T22:13:36.389Z,97849.56
2022-08-26T22:16:26.125Z,97853.94
2022-08-26T22:19:17.092Z,97845.66
2022-08-26T22:22:06.053Z,97854.34
2022-08-26T22:24:55.832Z,97845.97
2022-08-26T22:27:44.183Z,97841.56
2022-08-26T22:30:35.209Z,97836.00
2022-08-26T22:33:24.735Z,97838.44
2022-08-26T22:36:18.499Z,97842.22
2022-08-26T22:39:06.914Z,97844.50
2022-08-26T22:42:01.641Z,97839.13
2022-08-26T22:44:50.097Z,97841.38
2022-08-26T22:47:39.054Z,97842.41
2022-08-26T22:50:27.923Z,97838.75
2022-08-26T22:53:17.895Z,97842.91
2022-08-26T22:56:06.973Z,97835.00
2022-08-26T22:58:57.015Z,97833.72
2022-08-26T23:01:46.953Z,97833.53
2022-08-26T23:04:35.651Z,97834.25
2022-08-26T23:07:24.281Z,97826.53
2022-08-26T23:10:13.366Z,97825.44
2022-08-26T23:13:04.333Z,97825.44
2022-08-26T23:16:02.180Z,97831.53
2022-08-26T23:18:50.731Z,97827.13
2022-08-26T23:21:39.577Z,97822.16
2022-08-26T23:24:28.219Z,97825.88
2022-08-26T23:27:16.861Z,97807.97
2022-08-26T23:30:05.946Z,97822.38
2022-08-26T23:32:55.769Z,97814.16
2022-08-26T23:35:44.311Z,97816.25
2022-08-26T23:38:32.753Z,97798.88
2022-08-26T23:41:22.757Z,97800.56
2022-08-26T23:44:11.874Z,97796.09
2022-08-26T23:47:00.803Z,97794.72
2022-08-26T23:49:50.549Z,97782.00
2022-08-26T23:52:56.880Z,97784.84
2022-08-26T23:55:45.372Z,97788.06
2022-08-26T23:58:33.878Z,97778.88
